Terminal Aerodrome Forecast
Issued by NWS

Home | Current Version | Previous Version | Graphics & Text | Print | Product List | Glossary Off
Versions: 1 2 3 4 5 6 7 8 9 10 11 12 13 14 15 16 17 18 19 20

000
FTUS42 KMHX 231700 RRA
TAFPGV
TAF
KPGV 231741Z 2318/2418 08006KT P6SM VCSH SCT025 BKN050
     FM240100 04004KT P6SM SCT015 BKN025
     FM241400 06010G16KT P6SM BKN035
      AMD LTD TO CLD VIS AND WIND=

USA.gov is the U.S. government's official web portal to all federal, state and local government web resources and services.